createdAt,value
2022-10-14T00:00:05.537Z,17.10
2022-10-14T00:02:58.021Z,17.45
2022-10-14T00:05:44.114Z,17.30
2022-10-14T00:08:31.577Z,17.65
2022-10-14T00:11:23.245Z,15.77
2022-10-14T00:14:14.544Z,16.23
2022-10-14T00:17:00.648Z,15.68
2022-10-14T00:19:46.783Z,16.55
2022-10-14T00:22:32.622Z,16.35
2022-10-14T00:25:18.985Z,16.73
2022-10-14T00:28:05.013Z,16.95
2022-10-14T00:30:56.000Z,15.55
2022-10-14T00:33:42.444Z,15.50
2022-10-14T00:36:30.041Z,16.90
2022-10-14T00:39:16.451Z,16.15
2022-10-14T00:42:02.560Z,15.50
2022-10-14T00:44:51.480Z,16.60
2022-10-14T00:47:37.828Z,17.75
2022-10-14T00:50:27.445Z,18.38
2022-10-14T00:53:14.125Z,17.40
2022-10-14T00:56:00.397Z,18.33
2022-10-14T00:58:47.020Z,18.75
2022-10-14T01:01:33.113Z,19.58
2022-10-14T01:04:19.290Z,17.70
2022-10-14T01:07:08.271Z,17.30
2022-10-14T01:10:09.657Z,18.52
2022-10-14T01:13:08.953Z,18.00
2022-10-14T01:16:06.952Z,17.23
2022-10-14T01:19:00.842Z,15.90
2022-10-14T01:21:57.131Z,17.00
2022-10-14T01:25:13.801Z,17.17
2022-10-14T01:28:02.849Z,17.30
2022-10-14T01:30:50.676Z,18.13
2022-10-14T01:33:45.178Z,17.52
2022-10-14T01:36:46.257Z,16.63
2022-10-14T01:39:37.723Z,17.15
2022-10-14T01:42:27.428Z,17.98
2022-10-14T01:45:17.415Z,16.77
2022-10-14T01:48:05.114Z,17.45
2022-10-14T01:50:52.615Z,18.27
2022-10-14T01:53:43.230Z,18.08
2022-10-14T01:56:31.330Z,16.83
2022-10-14T01:59:18.923Z,17.90
2022-10-14T02:02:05.344Z,17.90
2022-10-14T02:04:52.260Z,17.48
2022-10-14T02:07:44.829Z,18.30
2022-10-14T02:10:34.801Z,18.27
2022-10-14T02:13:38.681Z,19.45
2022-10-14T02:16:40.718Z,19.92
2022-10-14T02:19:30.920Z,18.75
2022-10-14T02:22:37.737Z,20.15
2022-10-14T02:25:27.694Z,21.38
2022-10-14T02:28:18.215Z,20.90
2022-10-14T02:31:09.307Z,20.27
2022-10-14T02:33:58.155Z,21.98
2022-10-14T02:36:45.460Z,20.83
2022-10-14T02:39:35.918Z,21.15
2022-10-14T02:42:23.721Z,22.38
2022-10-14T02:45:11.147Z,21.27
2022-10-14T02:47:57.791Z,21.75
2022-10-14T02:50:44.095Z,21.55
2022-10-14T02:53:30.932Z,20.52
2022-10-14T02:56:18.345Z,21.45
2022-10-14T02:59:04.273Z,22.40
2022-10-14T03:01:50.890Z,21.75
2022-10-14T03:04:37.650Z,22.23
2022-10-14T03:07:24.554Z,22.00
2022-10-14T03:10:11.579Z,20.90
2022-10-14T03:12:58.857Z,20.65
2022-10-14T03:15:50.725Z,18.63
2022-10-14T03:18:38.393Z,20.13
2022-10-14T03:21:33.360Z,19.65
2022-10-14T03:24:19.400Z,20.33
2022-10-14T03:27:10.014Z,20.25
2022-10-14T03:29:56.442Z,20.75
2022-10-14T03:32:44.339Z,19.25
2022-10-14T03:36:00.248Z,20.77
2022-10-14T03:42:04.467Z,19.85
2022-10-14T03:44:59.687Z,18.95
2022-10-14T03:47:47.713Z,19.98
2022-10-14T03:50:33.777Z,19.42
2022-10-14T03:53:20.160Z,19.45
2022-10-14T03:56:07.279Z,18.27
2022-10-14T03:58:54.213Z,18.95
2022-10-14T04:01:42.214Z,19.05
2022-10-14T04:04:38.697Z,19.50
2022-10-14T04:07:25.050Z,18.25
2022-10-14T04:10:16.853Z,18.13
2022-10-14T04:13:08.630Z,19.65
2022-10-14T04:15:56.999Z,18.95
2022-10-14T04:18:48.397Z,18.52
2022-10-14T04:21:39.398Z,19.02
2022-10-14T04:24:27.032Z,19.10
2022-10-14T04:27:18.236Z,18.35
2022-10-14T04:30:11.128Z,17.88
2022-10-14T04:33:07.976Z,18.55
2022-10-14T04:36:01.592Z,18.73
2022-10-14T04:38:53.599Z,18.42
2022-10-14T04:41:39.641Z,18.35
2022-10-14T04:44:26.029Z,18.15
2022-10-14T04:47:13.889Z,18.20
2022-10-14T04:50:00.258Z,19.05
2022-10-14T04:52:48.856Z,19.73
2022-10-14T04:55:34.929Z,18.90
2022-10-14T04:58:21.436Z,19.50
2022-10-14T05:01:08.498Z,19.50
2022-10-14T05:03:58.322Z,18.77
2022-10-14T05:06:45.376Z,18.48
2022-10-14T05:09:34.180Z,19.30
2022-10-14T05:12:21.104Z,17.30
2022-10-14T05:15:12.963Z,19.08
2022-10-14T05:18:07.631Z,19.67
2022-10-14T05:21:07.495Z,19.55
2022-10-14T05:24:16.567Z,21.60
2022-10-14T05:27:04.687Z,22.58
2022-10-14T05:29:51.770Z,21.83
2022-10-14T05:32:38.711Z,21.58
2022-10-14T05:35:53.659Z,21.13
2022-10-14T05:38:35.016Z,20.02
2022-10-14T05:41:22.246Z,19.35
2022-10-14T05:44:11.218Z,21.00
2022-10-14T05:54:30.827Z,19.90
2022-10-14T05:57:17.840Z,18.98
2022-10-14T06:00:05.656Z,16.27
2022-10-14T06:02:53.819Z,16.83
2022-10-14T06:05:40.508Z,14.25
2022-10-14T06:08:28.465Z,14.73
2022-10-14T06:11:14.368Z,14.70
2022-10-14T06:14:00.880Z,14.45
2022-10-14T06:16:49.926Z,14.52
2022-10-14T06:19:35.941Z,14.82
2022-10-14T06:22:22.424Z,13.93
2022-10-14T06:25:08.976Z,13.90
2022-10-14T06:27:55.270Z,14.25
2022-10-14T06:30:41.152Z,14.82
2022-10-14T06:33:28.844Z,14.63
2022-10-14T06:36:14.928Z,14.77
2022-10-14T06:39:01.190Z,13.95
2022-10-14T06:41:47.513Z,14.70
2022-10-14T06:44:38.524Z,12.93
2022-10-14T06:47:24.270Z,14.60
2022-10-14T06:50:10.134Z,14.07
2022-10-14T06:52:55.888Z,14.20
2022-10-14T06:55:41.779Z,13.02
2022-10-14T06:58:27.893Z,13.75
2022-10-14T07:01:13.915Z,13.20
2022-10-14T07:03:59.961Z,14.93
2022-10-14T07:06:45.770Z,13.38
2022-10-14T07:09:32.414Z,14.85
2022-10-14T07:12:18.738Z,13.38
2022-10-14T07:15:05.433Z,14.73
2022-10-14T07:17:51.211Z,13.95
2022-10-14T07:20:37.376Z,13.52
2022-10-14T07:23:23.231Z,14.75
2022-10-14T07:26:09.164Z,14.23
2022-10-14T07:28:55.605Z,14.05
2022-10-14T07:31:42.077Z,13.75
2022-10-14T07:34:28.389Z,12.35
2022-10-14T07:37:14.593Z,11.88
2022-10-14T07:40:00.664Z,12.60
2022-10-14T07:42:47.191Z,12.73
2022-10-14T07:45:36.179Z,12.43
2022-10-14T07:48:27.437Z,13.50
2022-10-14T07:51:19.004Z,11.95
2022-10-14T07:54:09.854Z,12.13
2022-10-14T07:56:57.949Z,12.18
2022-10-14T07:59:43.977Z,11.82
2022-10-14T08:02:30.041Z,11.15
2022-10-14T08:05:37.211Z,10.80
2022-10-14T08:08:24.321Z,10.82
2022-10-14T08:11:11.781Z,10.82
2022-10-14T08:13:59.004Z,10.52
2022-10-14T08:16:45.273Z,10.95
2022-10-14T08:19:31.617Z,11.65
2022-10-14T08:22:18.149Z,15.82
2022-10-14T08:25:04.266Z,14.05
2022-10-14T08:27:51.257Z,13.73
2022-10-14T08:30:37.448Z,16.60
2022-10-14T08:33:23.138Z,18.27
2022-10-14T08:36:09.273Z,15.18
2022-10-14T08:38:55.581Z,14.60
2022-10-14T08:41:56.620Z,14.65
2022-10-14T08:44:47.956Z,14.68
2022-10-14T08:47:40.791Z,14.23
2022-10-14T08:50:48.863Z,14.85
2022-10-14T08:53:45.332Z,14.63
2022-10-14T08:56:31.246Z,17.20
2022-10-14T08:59:20.121Z,14.88
2022-10-14T09:02:19.486Z,14.63
2022-10-14T09:05:06.624Z,20.40
2022-10-14T09:07:55.138Z,19.13
2022-10-14T09:10:42.526Z,18.23
2022-10-14T09:13:30.710Z,19.73
2022-10-14T09:16:21.739Z,19.95
2022-10-14T09:19:32.149Z,15.18
2022-10-14T09:22:18.309Z,14.70
2022-10-14T09:25:12.342Z,13.23
2022-10-14T09:27:58.343Z,12.68
2022-10-14T09:30:44.106Z,12.35
2022-10-14T09:33:31.397Z,13.43
2022-10-14T09:36:20.208Z,12.25
2022-10-14T09:39:06.485Z,12.40
2022-10-14T09:41:53.547Z,12.18
2022-10-14T09:44:39.645Z,12.65
2022-10-14T09:47:25.731Z,12.20
2022-10-14T09:50:21.965Z,13.98
2022-10-14T09:53:15.730Z,11.07
2022-10-14T09:56:04.314Z,10.65
2022-10-14T09:58:53.627Z,11.70
2022-10-14T10:01:42.599Z,12.15
2022-10-14T10:04:31.354Z,12.63
2022-10-14T10:07:30.695Z,12.25
2022-10-14T10:10:19.456Z,11.07
2022-10-14T10:13:22.201Z,11.05
2022-10-14T10:16:25.090Z,11.45
2022-10-14T10:19:27.605Z,10.85
2022-10-14T10:25:08.697Z,9.05
2022-10-14T10:27:58.209Z,8.98
2022-10-14T10:31:09.377Z,8.32
2022-10-14T10:34:34.622Z,7.78
2022-10-14T10:37:28.248Z,7.50
2022-10-14T10:40:44.050Z,7.25
2022-10-14T10:43:53.780Z,7.50
2022-10-14T10:46:51.007Z,8.52
2022-10-14T10:50:00.773Z,9.85
2022-10-14T10:53:04.060Z,10.48
2022-10-14T10:56:11.623Z,8.52
2022-10-14T10:59:24.755Z,8.82
2022-10-14T11:02:33.412Z,10.07
2022-10-14T11:05:37.993Z,12.18
2022-10-14T11:09:10.113Z,16.23
2022-10-14T11:12:20.720Z,9.82
2022-10-14T11:15:31.652Z,8.70
2022-10-14T11:18:32.666Z,13.25
2022-10-14T11:21:56.559Z,11.98
2022-10-14T11:24:54.733Z,10.68
2022-10-14T11:28:00.773Z,7.68
2022-10-14T11:30:51.928Z,7.65
2022-10-14T11:33:39.899Z,6.75
2022-10-14T11:36:55.384Z,5.78
2022-10-14T11:39:44.682Z,6.78
2022-10-14T11:42:52.572Z,8.13
2022-10-14T11:46:07.644Z,6.43
2022-10-14T11:48:59.548Z,5.90
2022-10-14T11:52:20.262Z,6.50
2022-10-14T11:55:29.154Z,6.18
2022-10-14T11:58:21.734Z,6.20
2022-10-14T12:01:08.053Z,6.65
2022-10-14T12:04:26.736Z,6.63
2022-10-14T12:07:12.393Z,5.68
2022-10-14T12:10:12.757Z,5.80
2022-10-14T12:12:59.699Z,6.00
2022-10-14T12:15:53.426Z,5.15
2022-10-14T12:18:39.575Z,5.30
2022-10-14T12:21:35.488Z,5.88
2022-10-14T12:24:24.495Z,4.82
2022-10-14T12:27:13.202Z,5.88
2022-10-14T12:29:59.533Z,5.07
2022-10-14T12:33:07.106Z,5.45
2022-10-14T12:36:01.451Z,6.40
2022-10-14T12:39:19.535Z,5.53
2022-10-14T12:42:12.309Z,6.40
2022-10-14T12:45:01.664Z,5.63
2022-10-14T12:47:47.798Z,5.63
2022-10-14T12:50:39.983Z,6.32
2022-10-14T12:53:31.098Z,6.55
2022-10-14T12:56:36.459Z,6.38
2022-10-14T12:59:28.963Z,7.05
2022-10-14T13:02:37.763Z,7.40
2022-10-14T13:05:30.450Z,6.43
2022-10-14T13:08:23.781Z,5.82
2022-10-14T13:11:13.150Z,6.05
2022-10-14T13:14:01.151Z,5.95
2022-10-14T13:16:53.353Z,6.43
2022-10-14T13:19:41.234Z,6.57
2022-10-14T13:22:34.521Z,8.40
2022-10-14T13:25:21.442Z,8.30
2022-10-14T13:28:51.723Z,9.32
2022-10-14T13:31:51.552Z,7.35
2022-10-14T13:34:54.853Z,8.82
2022-10-14T13:37:46.504Z,6.72
2022-10-14T13:40:50.738Z,6.88
2022-10-14T13:43:42.304Z,8.27
2022-10-14T13:46:42.646Z,7.85
2022-10-14T13:49:35.120Z,7.72
2022-10-14T13:52:25.894Z,7.32
2022-10-14T13:55:22.147Z,8.02
2022-10-14T13:58:18.369Z,6.75
2022-10-14T14:01:06.836Z,6.60
2022-10-14T14:03:57.216Z,6.32
2022-10-14T14:07:03.166Z,6.68
2022-10-14T14:09:56.937Z,6.00
2022-10-14T14:12:43.388Z,6.07
2022-10-14T14:15:30.894Z,6.90
2022-10-14T14:18:38.045Z,6.85
2022-10-14T14:21:34.308Z,10.02
2022-10-14T14:24:25.274Z,8.30
2022-10-14T14:27:14.091Z,9.15
2022-10-14T14:30:00.497Z,7.55
2022-10-14T14:32:46.622Z,6.95
2022-10-14T14:35:32.954Z,7.55
2022-10-14T14:38:31.558Z,6.80
2022-10-14T14:41:23.238Z,6.95
2022-10-14T14:44:25.612Z,8.00
2022-10-14T14:47:12.627Z,7.55
2022-10-14T14:50:24.933Z,7.03
2022-10-14T14:53:11.920Z,7.97
2022-10-14T14:56:00.535Z,7.45
2022-10-14T14:59:21.939Z,7.25
2022-10-14T15:02:15.761Z,7.50
2022-10-14T15:05:07.776Z,6.80
2022-10-14T15:07:54.306Z,7.03
2022-10-14T15:10:47.880Z,6.75
2022-10-14T15:13:40.152Z,6.30
2022-10-14T15:16:54.359Z,6.38
2022-10-14T15:19:40.133Z,7.40
2022-10-14T15:22:37.171Z,6.50
2022-10-14T15:25:25.260Z,6.75
2022-10-14T15:28:29.476Z,6.45
2022-10-14T15:31:18.962Z,7.25
2022-10-14T15:34:05.812Z,6.90
2022-10-14T15:36:52.933Z,7.68
2022-10-14T15:39:39.791Z,7.93
2022-10-14T15:42:26.540Z,8.40
2022-10-14T15:45:13.389Z,8.98
2022-10-14T15:48:02.288Z,8.38
2022-10-14T15:50:48.491Z,7.60
2022-10-14T15:53:34.507Z,8.30
2022-10-14T15:56:22.938Z,8.35
2022-10-14T15:59:09.173Z,7.45
2022-10-14T16:01:55.390Z,7.53
2022-10-14T16:05:00.715Z,7.18
2022-10-14T16:07:48.441Z,8.27
2022-10-14T16:10:34.561Z,7.80
2022-10-14T16:13:21.193Z,7.88
2022-10-14T16:16:09.619Z,7.78
2022-10-14T16:18:56.229Z,8.02
2022-10-14T16:21:42.808Z,7.43
2022-10-14T16:24:28.799Z,9.20
2022-10-14T16:27:15.697Z,8.35
2022-10-14T16:30:01.945Z,8.18
2022-10-14T16:32:48.597Z,8.38
2022-10-14T16:35:34.517Z,8.15
2022-10-14T16:38:20.901Z,8.07
2022-10-14T16:41:10.027Z,7.97
2022-10-14T16:43:56.162Z,8.55
2022-10-14T16:47:00.655Z,8.93
2022-10-14T16:49:49.310Z,8.57
2022-10-14T16:52:54.139Z,8.55
2022-10-14T16:55:40.412Z,10.05
2022-10-14T16:58:27.825Z,6.78
2022-10-14T17:01:13.587Z,6.63
2022-10-14T17:03:59.547Z,7.10
2022-10-14T17:06:46.686Z,6.43
2022-10-14T17:09:39.482Z,6.07
2022-10-14T17:12:26.622Z,6.07
2022-10-14T17:15:12.780Z,5.72
2022-10-14T17:17:59.154Z,6.50
2022-10-14T17:20:45.177Z,5.30
2022-10-14T17:23:31.518Z,6.95
2022-10-14T17:26:18.820Z,7.45
2022-10-14T17:29:05.088Z,6.85
2022-10-14T17:31:51.579Z,8.82
2022-10-14T17:34:37.847Z,6.90
2022-10-14T17:37:23.823Z,6.70
2022-10-14T17:40:10.258Z,6.20
2022-10-14T17:43:00.063Z,5.22
2022-10-14T17:45:46.594Z,5.60
2022-10-14T17:48:35.685Z,5.75
2022-10-14T17:51:25.629Z,5.43
2022-10-14T17:54:12.576Z,5.53
2022-10-14T17:56:58.747Z,5.43
2022-10-14T17:59:44.600Z,5.53
2022-10-14T18:02:30.539Z,5.53
2022-10-14T18:05:16.551Z,5.60
2022-10-14T18:08:02.648Z,5.93
2022-10-14T18:10:48.685Z,6.00
2022-10-14T18:13:35.150Z,5.25
2022-10-14T18:16:21.617Z,5.72
2022-10-14T18:19:09.275Z,6.15
2022-10-14T18:21:55.100Z,6.10
2022-10-14T18:24:41.202Z,8.57
2022-10-14T18:27:27.266Z,8.32
2022-10-14T18:30:13.509Z,9.05
2022-10-14T18:32:59.753Z,7.93
2022-10-14T18:35:48.693Z,7.03
2022-10-14T18:38:35.779Z,6.20
2022-10-14T18:41:22.719Z,5.90
2022-10-14T18:44:11.632Z,5.45
2022-10-14T18:46:57.762Z,5.50
2022-10-14T18:49:43.697Z,9.02
2022-10-14T18:52:29.722Z,15.15
2022-10-14T18:55:15.877Z,10.15
2022-10-14T18:58:02.098Z,12.75
2022-10-14T19:00:48.382Z,12.85
2022-10-14T19:03:35.322Z,9.57
2022-10-14T19:06:22.395Z,9.57
2022-10-14T19:09:12.562Z,9.63
2022-10-14T19:11:59.206Z,8.20
2022-10-14T19:14:45.148Z,7.75
2022-10-14T19:17:30.933Z,6.63
2022-10-14T19:20:16.743Z,7.07
2022-10-14T19:23:02.836Z,6.80
2022-10-14T19:25:49.040Z,7.40
2022-10-14T19:28:35.094Z,6.18
2022-10-14T19:31:24.822Z,6.93
2022-10-14T19:34:13.839Z,7.22
2022-10-14T19:37:00.270Z,6.70
2022-10-14T19:39:46.101Z,7.30
2022-10-14T19:42:32.067Z,8.80
2022-10-14T19:45:18.004Z,8.70
2022-10-14T19:48:05.982Z,7.63
2022-10-14T19:50:52.570Z,7.00
2022-10-14T19:53:39.266Z,5.85
2022-10-14T19:56:26.290Z,6.38
2022-10-14T19:59:13.610Z,6.50
2022-10-14T20:01:59.900Z,6.38
2022-10-14T20:04:45.826Z,6.07
2022-10-14T20:07:31.770Z,6.95
2022-10-14T20:10:17.897Z,6.90
2022-10-14T20:13:03.981Z,7.10
2022-10-14T20:15:54.708Z,7.10
2022-10-14T20:18:40.823Z,6.53
2022-10-14T20:21:26.944Z,6.63
2022-10-14T20:24:13.485Z,6.00
2022-10-14T20:26:59.705Z,6.18
2022-10-14T20:29:45.876Z,6.82
2022-10-14T20:32:32.241Z,6.75
2022-10-14T20:35:18.561Z,6.43
2022-10-14T20:38:04.499Z,12.80
2022-10-14T20:40:50.816Z,10.43
2022-10-14T20:43:37.027Z,8.18
2022-10-14T20:46:24.778Z,7.03
2022-10-14T20:49:11.766Z,7.05
2022-10-14T20:51:58.161Z,7.50
2022-10-14T20:54:44.055Z,7.13
2022-10-14T20:57:30.292Z,9.77
2022-10-14T21:00:16.330Z,7.00
2022-10-14T21:03:02.558Z,7.15
2022-10-14T21:05:48.602Z,6.40
2022-10-14T21:08:35.841Z,6.80
2022-10-14T21:11:23.679Z,6.88
2022-10-14T21:14:10.628Z,7.70
2022-10-14T21:16:56.817Z,7.10
2022-10-14T21:19:42.577Z,7.18
2022-10-14T21:22:28.556Z,6.60
2022-10-14T21:25:14.639Z,6.32
2022-10-14T21:28:00.848Z,6.78
2022-10-14T21:30:46.744Z,5.93
2022-10-14T21:33:32.803Z,7.30
2022-10-14T21:36:18.793Z,6.30
2022-10-14T21:39:15.554Z,6.18
2022-10-14T21:42:01.699Z,6.47
2022-10-14T21:44:47.584Z,6.53
2022-10-14T21:47:33.550Z,7.28
2022-10-14T21:50:20.319Z,7.30
2022-10-14T21:53:06.304Z,6.80
2022-10-14T21:55:52.880Z,6.70
2022-10-14T21:58:39.448Z,6.57
2022-10-14T22:01:28.645Z,7.20
2022-10-14T22:04:14.386Z,7.30
2022-10-14T22:09:46.774Z,7.28
2022-10-14T22:12:32.788Z,6.43
2022-10-14T22:15:18.833Z,7.30
2022-10-14T22:18:05.057Z,7.57
2022-10-14T22:20:59.917Z,7.95
2022-10-14T22:23:47.250Z,8.20
2022-10-14T22:26:33.675Z,8.15
2022-10-14T22:29:19.958Z,7.70
2022-10-14T22:32:05.830Z,8.95
2022-10-14T22:34:51.844Z,8.63
2022-10-14T22:37:37.811Z,9.10
2022-10-14T22:40:23.877Z,9.43
2022-10-14T22:43:10.096Z,8.13
2022-10-14T22:46:10.606Z,7.63
2022-10-14T22:48:57.639Z,7.00
2022-10-14T22:51:43.771Z,7.60
2022-10-14T22:54:29.748Z,6.50
2022-10-14T22:57:15.597Z,6.75
2022-10-14T23:00:01.645Z,7.28
2022-10-14T23:02:47.875Z,6.78
2022-10-14T23:05:33.784Z,6.90
2022-10-14T23:08:21.157Z,7.47
2022-10-14T23:11:07.679Z,7.65
2022-10-14T23:13:54.229Z,7.18
2022-10-14T23:16:40.386Z,7.88
2022-10-14T23:19:26.349Z,8.48
2022-10-14T23:22:12.254Z,8.18
2022-10-14T23:24:58.079Z,6.93
2022-10-14T23:27:44.151Z,7.20
2022-10-14T23:30:29.945Z,6.68
2022-10-14T23:33:16.017Z,6.93
2022-10-14T23:36:06.454Z,7.05
2022-10-14T23:38:55.358Z,7.07
2022-10-14T23:41:41.572Z,7.30
2022-10-14T23:44:27.838Z,7.68
2022-10-14T23:47:13.705Z,7.22
2022-10-14T23:49:59.569Z,7.05
2022-10-14T23:52:46.014Z,7.32
2022-10-14T23:55:32.096Z,7.15
2022-10-14T23:58:18.316Z,6.78
